createdAt,value
2022-11-14T00:01:13.066Z,15.10
2022-11-14T00:03:40.572Z,15.53
2022-11-14T00:06:08.460Z,17.73
2022-11-14T00:08:36.018Z,14.40
2022-11-14T00:11:03.991Z,13.57
2022-11-14T00:13:31.167Z,13.97
2022-11-14T00:15:58.900Z,12.60
2022-11-14T00:18:25.983Z,11.47
2022-11-14T00:20:53.762Z,10.60
2022-11-14T00:23:21.939Z,11.20
2022-11-14T00:25:49.153Z,11.07
2022-11-14T00:28:16.316Z,11.50
2022-11-14T00:30:48.117Z,11.93
2022-11-14T00:33:20.072Z,9.43
2022-11-14T00:35:55.337Z,10.17
2022-11-14T00:38:23.330Z,9.60
2022-11-14T00:40:50.623Z,10.13
2022-11-14T00:43:17.764Z,10.10
2022-11-14T00:45:45.688Z,10.80
2022-11-14T00:48:12.853Z,9.53
2022-11-14T00:50:40.674Z,10.63
2022-11-14T00:53:07.894Z,11.03
2022-11-14T00:55:35.301Z,11.13
2022-11-14T00:58:02.402Z,11.43
2022-11-14T01:00:29.585Z,10.60
2022-11-14T01:02:58.251Z,10.53
2022-11-14T01:05:25.957Z,11.30
2022-11-14T01:07:53.877Z,11.60
2022-11-14T01:10:21.094Z,11.73
2022-11-14T01:12:48.250Z,12.07
2022-11-14T01:15:15.414Z,13.80
2022-11-14T01:17:42.572Z,12.83
2022-11-14T01:20:09.845Z,12.57
2022-11-14T01:22:36.969Z,12.53
2022-11-14T01:25:04.342Z,13.20
2022-11-14T01:27:32.027Z,11.60
2022-11-14T01:29:59.320Z,12.60
2022-11-14T01:32:27.211Z,12.23
2022-11-14T01:34:54.464Z,11.47
2022-11-14T01:37:21.634Z,12.00
2022-11-14T01:39:48.857Z,12.13
2022-11-14T01:42:17.581Z,13.50
2022-11-14T01:44:50.678Z,13.80
2022-11-14T01:47:22.390Z,12.23
2022-11-14T01:49:54.733Z,12.60
2022-11-14T01:52:28.921Z,13.33
2022-11-14T01:55:00.713Z,12.10
2022-11-14T01:57:34.003Z,11.27
2022-11-14T02:00:05.646Z,12.53
2022-11-14T02:02:33.032Z,11.13
2022-11-14T02:05:15.958Z,12.27
2022-11-14T02:07:43.255Z,12.00
2022-11-14T02:10:16.582Z,12.57
2022-11-14T02:12:44.710Z,12.80
2022-11-14T02:15:13.190Z,13.13
2022-11-14T02:17:42.375Z,11.80
2022-11-14T02:20:12.363Z,12.30
2022-11-14T02:22:41.447Z,11.40
2022-11-14T02:25:10.449Z,11.63
2022-11-14T02:27:39.624Z,11.60
2022-11-14T02:30:17.081Z,11.53
2022-11-14T02:33:09.563Z,11.43
2022-11-14T02:35:31.416Z,11.63
2022-11-14T02:37:59.853Z,11.70
2022-11-14T02:40:26.994Z,12.50
2022-11-14T02:42:54.114Z,11.77
2022-11-14T02:45:21.404Z,11.20
2022-11-14T02:47:48.464Z,11.10
2022-11-14T02:50:15.781Z,10.87
2022-11-14T02:52:42.927Z,12.33
2022-11-14T02:55:10.706Z,11.97
2022-11-14T02:57:38.000Z,11.00
2022-11-14T03:00:11.637Z,10.53
2022-11-14T03:02:40.584Z,11.67
2022-11-14T03:05:08.146Z,11.23
2022-11-14T03:07:35.357Z,10.70
2022-11-14T03:10:02.786Z,11.13
2022-11-14T03:12:29.937Z,10.60
2022-11-14T03:14:57.033Z,10.73
2022-11-14T03:17:24.711Z,11.30
2022-11-14T03:19:51.904Z,9.70
2022-11-14T03:22:18.982Z,10.77
2022-11-14T03:24:46.058Z,10.13
2022-11-14T03:27:13.235Z,10.63
2022-11-14T03:29:40.346Z,11.23
2022-11-14T03:32:07.543Z,10.70
2022-11-14T03:34:34.679Z,11.20
2022-11-14T03:37:01.907Z,10.47
2022-11-14T03:39:28.965Z,11.07
2022-11-14T03:41:56.025Z,11.00
2022-11-14T03:44:23.167Z,10.80
2022-11-14T03:46:51.913Z,10.50
2022-11-14T03:49:19.069Z,10.00
2022-11-14T03:51:46.146Z,10.13
2022-11-14T03:54:13.295Z,10.20
2022-11-14T03:56:40.338Z,10.53
2022-11-14T03:59:07.437Z,11.40
2022-11-14T04:01:34.518Z,9.60
2022-11-14T04:04:01.633Z,10.90
2022-11-14T04:06:28.752Z,10.97
2022-11-14T04:08:56.724Z,10.83
2022-11-14T04:11:23.849Z,11.27
2022-11-14T04:13:50.974Z,10.83
2022-11-14T04:16:18.077Z,9.63
2022-11-14T04:18:45.232Z,10.43
2022-11-14T04:21:12.426Z,10.47
2022-11-14T04:23:39.532Z,10.37
2022-11-14T04:26:06.608Z,9.70
2022-11-14T04:28:33.730Z,10.77
2022-11-14T04:31:01.126Z,10.73
2022-11-14T04:33:28.568Z,9.90
2022-11-14T04:35:55.719Z,9.67
2022-11-14T04:38:22.803Z,11.00
2022-11-14T04:40:53.532Z,11.63
2022-11-14T04:43:21.579Z,10.87
2022-11-14T04:45:48.689Z,9.90
2022-11-14T04:48:15.844Z,10.77
2022-11-14T04:50:42.913Z,10.37
2022-11-14T04:53:10.104Z,10.43
2022-11-14T04:55:37.189Z,11.10
2022-11-14T04:58:04.306Z,10.80
2022-11-14T05:00:31.501Z,10.90
2022-11-14T05:03:01.725Z,11.20
2022-11-14T05:05:28.860Z,11.60
2022-11-14T05:07:56.004Z,12.40
2022-11-14T05:10:23.337Z,11.87
2022-11-14T05:12:53.713Z,12.77
2022-11-14T05:15:21.281Z,11.93
2022-11-14T05:17:48.441Z,11.47
2022-11-14T05:20:15.632Z,18.80
2022-11-14T05:22:42.789Z,20.67
2022-11-14T05:25:10.208Z,18.97
2022-11-14T05:27:37.436Z,18.50
2022-11-14T05:30:04.969Z,17.53
2022-11-14T05:32:32.081Z,15.47
2022-11-14T05:34:59.218Z,15.97
2022-11-14T05:37:26.373Z,17.17
2022-11-14T05:39:53.551Z,18.27
2022-11-14T05:42:20.844Z,16.80
2022-11-14T05:44:47.958Z,15.90
2022-11-14T05:47:15.052Z,14.50
2022-11-14T05:49:42.189Z,15.50
2022-11-14T05:52:09.647Z,15.07
2022-11-14T05:54:36.736Z,14.73
2022-11-14T05:57:04.738Z,15.37
2022-11-14T05:59:31.929Z,14.10
2022-11-14T06:01:59.266Z,14.47
2022-11-14T06:04:27.292Z,14.90
2022-11-14T06:06:54.643Z,14.27
2022-11-14T06:09:22.061Z,16.37
2022-11-14T06:11:49.508Z,14.73
2022-11-14T06:14:16.858Z,14.13
2022-11-14T06:16:44.064Z,14.40
2022-11-14T06:19:11.730Z,18.97
2022-11-14T06:21:39.032Z,17.40
2022-11-14T06:24:06.605Z,19.47
2022-11-14T06:26:34.044Z,18.27
2022-11-14T06:29:01.168Z,17.87
2022-11-14T06:31:28.527Z,18.50
2022-11-14T06:33:56.818Z,16.70
2022-11-14T06:36:24.055Z,18.47
2022-11-14T06:38:51.294Z,16.40
2022-11-14T06:41:20.758Z,16.97
2022-11-14T06:43:49.819Z,15.67
2022-11-14T06:46:19.333Z,14.87
2022-11-14T06:48:47.636Z,16.10
2022-11-14T06:51:16.791Z,15.10
2022-11-14T06:53:44.713Z,15.73
2022-11-14T06:56:14.052Z,14.67
2022-11-14T06:58:44.264Z,15.13
2022-11-14T07:01:14.266Z,16.30
2022-11-14T07:03:42.467Z,17.17
2022-11-14T07:06:12.051Z,15.30
2022-11-14T07:08:39.296Z,17.00
2022-11-14T07:11:22.930Z,16.00
2022-11-14T07:13:55.522Z,14.90
2022-11-14T07:16:29.584Z,15.60
2022-11-14T07:18:58.364Z,17.00
2022-11-14T07:21:26.569Z,16.50
2022-11-14T07:23:53.699Z,16.87
2022-11-14T07:26:20.882Z,16.17
2022-11-14T07:28:52.256Z,16.90
2022-11-14T07:31:21.501Z,15.97
2022-11-14T07:33:48.785Z,15.77
2022-11-14T07:36:17.173Z,15.90
2022-11-14T07:38:44.453Z,16.77
2022-11-14T07:41:14.358Z,15.70
2022-11-14T07:43:42.091Z,15.80
2022-11-14T07:46:15.244Z,14.00
2022-11-14T07:48:42.628Z,17.67
2022-11-14T07:51:18.346Z,15.50
2022-11-14T07:53:45.924Z,16.90
2022-11-14T07:56:13.155Z,16.47
2022-11-14T07:58:42.291Z,16.73
2022-11-14T08:01:12.137Z,17.37
2022-11-14T08:03:45.077Z,17.07
2022-11-14T08:06:14.527Z,16.37
2022-11-14T08:08:41.707Z,16.90
2022-11-14T08:11:09.025Z,15.77
2022-11-14T08:13:36.138Z,16.23
2022-11-14T08:16:12.780Z,15.53
2022-11-14T08:18:41.635Z,16.73
2022-11-14T08:21:08.769Z,17.23
2022-11-14T08:23:36.071Z,17.10
2022-11-14T08:26:03.383Z,16.87
2022-11-14T08:28:30.931Z,16.60
2022-11-14T08:31:02.725Z,17.17
2022-11-14T08:33:30.666Z,16.37
2022-11-14T08:36:05.096Z,17.53
2022-11-14T08:38:33.966Z,16.53
2022-11-14T08:41:02.364Z,16.17
2022-11-14T08:43:30.407Z,16.23
2022-11-14T08:46:02.546Z,17.00
2022-11-14T08:48:31.286Z,16.27
2022-11-14T08:51:03.695Z,16.93
2022-11-14T08:53:31.157Z,15.40
2022-11-14T08:55:58.235Z,16.60
2022-11-14T08:58:29.349Z,16.90
2022-11-14T09:01:01.784Z,15.20
2022-11-14T09:03:29.011Z,15.97
2022-11-14T09:05:56.415Z,15.93
2022-11-14T09:08:24.277Z,15.20
2022-11-14T09:10:51.535Z,16.87
2022-11-14T09:13:18.641Z,17.23
2022-11-14T09:15:46.096Z,15.73
2022-11-14T09:18:13.557Z,16.20
2022-11-14T09:20:40.883Z,16.17
2022-11-14T09:23:09.466Z,16.13
2022-11-14T09:25:37.075Z,16.23
2022-11-14T09:28:06.463Z,14.87
2022-11-14T09:30:34.582Z,16.40
2022-11-14T09:33:11.136Z,15.33
2022-11-14T09:35:39.118Z,14.97
2022-11-14T09:38:09.894Z,14.57
2022-11-14T09:41:09.213Z,16.00
2022-11-14T09:44:04.059Z,14.90
2022-11-14T09:46:45.020Z,15.43
2022-11-14T09:49:39.634Z,15.60
2022-11-14T09:52:27.369Z,15.80
2022-11-14T09:55:09.647Z,16.30
2022-11-14T09:57:36.958Z,15.93
2022-11-14T10:00:20.418Z,16.13
2022-11-14T10:03:24.976Z,14.53
2022-11-14T10:06:04.274Z,14.10
2022-11-14T10:08:52.811Z,15.33
2022-11-14T10:11:55.602Z,15.73
2022-11-14T10:14:31.819Z,15.83
2022-11-14T10:17:10.750Z,15.90
2022-11-14T10:19:58.404Z,15.10
2022-11-14T10:22:50.450Z,15.10
2022-11-14T10:25:43.652Z,14.63
2022-11-14T10:28:32.785Z,14.17
2022-11-14T10:31:06.019Z,15.53
2022-11-14T10:34:15.813Z,14.60
2022-11-14T10:37:35.159Z,13.50
2022-11-14T10:40:21.117Z,14.83
2022-11-14T10:42:55.459Z,16.60
2022-11-14T10:45:35.027Z,14.23
2022-11-14T10:48:13.294Z,14.50
2022-11-14T10:50:50.051Z,13.43
2022-11-14T10:53:29.175Z,14.00
2022-11-14T10:56:04.298Z,13.03
2022-11-14T10:58:46.741Z,12.20
2022-11-14T11:01:38.251Z,14.33
2022-11-14T11:04:30.739Z,12.80
2022-11-14T11:08:02.954Z,13.77
2022-11-14T11:11:03.914Z,13.00
2022-11-14T11:13:36.767Z,13.40
2022-11-14T11:16:04.981Z,14.60
2022-11-14T11:18:34.657Z,11.83
2022-11-14T11:21:07.836Z,11.97
2022-11-14T11:23:36.351Z,11.87
2022-11-14T11:26:05.971Z,11.70
2022-11-14T11:28:34.458Z,14.20
2022-11-14T11:31:04.322Z,14.73
2022-11-14T11:33:38.911Z,14.20
2022-11-14T11:36:13.974Z,14.13
2022-11-14T11:38:42.092Z,13.53
2022-11-14T11:44:16.960Z,13.13
2022-11-14T11:46:49.407Z,12.83
2022-11-14T11:49:35.117Z,13.33
2022-11-14T11:52:12.361Z,13.60
2022-11-14T11:55:13.903Z,14.20
2022-11-14T11:57:48.519Z,12.73
2022-11-14T12:00:20.501Z,12.37
2022-11-14T12:02:52.814Z,13.60
2022-11-14T12:05:42.936Z,12.67
2022-11-14T12:08:23.481Z,12.20
2022-11-14T12:10:51.707Z,11.93
2022-11-14T12:13:37.227Z,11.83
2022-11-14T12:16:17.482Z,12.87
2022-11-14T12:19:05.960Z,12.90
2022-11-14T12:21:48.449Z,11.73
2022-11-14T12:24:41.753Z,12.00
2022-11-14T12:27:31.878Z,12.70
2022-11-14T12:30:11.105Z,11.77
2022-11-14T12:33:02.010Z,12.60
2022-11-14T12:35:34.768Z,11.20
2022-11-14T12:38:05.225Z,12.60
2022-11-14T12:40:38.694Z,13.13
2022-11-14T12:43:36.021Z,13.23
2022-11-14T12:46:11.159Z,11.03
2022-11-14T12:48:47.729Z,10.90
2022-11-14T12:51:27.424Z,11.10
2022-11-14T12:53:56.410Z,11.20
2022-11-14T12:56:29.245Z,9.30
2022-11-14T12:59:14.481Z,9.40
2022-11-14T13:01:50.370Z,10.40
2022-11-14T13:04:47.825Z,11.80
2022-11-14T13:07:43.737Z,10.80
2022-11-14T13:10:36.839Z,9.83
2022-11-14T13:13:27.039Z,9.20
2022-11-14T13:16:14.742Z,9.83
2022-11-14T13:19:37.220Z,9.90
2022-11-14T13:22:13.215Z,10.83
2022-11-14T13:24:58.661Z,12.20
2022-11-14T13:27:39.486Z,11.00
2022-11-14T13:30:13.594Z,12.13
2022-11-14T13:32:44.686Z,11.70
2022-11-14T13:35:23.035Z,11.43
2022-11-14T13:37:55.885Z,11.20
2022-11-14T13:40:22.998Z,11.17
2022-11-14T13:43:04.539Z,12.17
2022-11-14T13:45:43.873Z,11.57
2022-11-14T13:48:35.783Z,12.93
2022-11-14T13:51:41.248Z,12.40
2022-11-14T13:53:58.786Z,11.90
2022-11-14T13:56:35.914Z,11.60
2022-11-14T13:59:24.745Z,12.50
2022-11-14T14:02:19.589Z,13.17
2022-11-14T14:04:46.739Z,13.80
2022-11-14T14:07:25.093Z,13.60
2022-11-14T14:10:35.447Z,12.80
2022-11-14T14:13:14.510Z,12.03
2022-11-14T14:15:59.882Z,14.67
2022-11-14T14:18:45.490Z,11.73
2022-11-14T14:21:42.790Z,11.70
2022-11-14T14:24:34.756Z,13.10
2022-11-14T14:27:24.148Z,12.97
2022-11-14T14:30:09.718Z,12.67
2022-11-14T14:32:37.247Z,12.00
2022-11-14T14:35:21.479Z,12.07
2022-11-14T14:37:54.102Z,12.37
2022-11-14T14:40:24.358Z,12.80
2022-11-14T14:42:51.701Z,13.20
2022-11-14T14:45:21.056Z,12.80
2022-11-14T14:47:58.900Z,13.10
2022-11-14T14:50:33.715Z,12.70
2022-11-14T14:53:03.051Z,13.10
2022-11-14T14:55:32.757Z,13.57
2022-11-14T14:58:22.710Z,14.73
2022-11-14T15:01:03.953Z,13.57
2022-11-14T15:03:40.751Z,13.73
2022-11-14T15:06:31.794Z,14.30
2022-11-14T15:09:23.479Z,14.40
2022-11-14T15:11:53.127Z,14.00
2022-11-14T15:14:24.583Z,13.13
2022-11-14T15:16:53.286Z,14.50
2022-11-14T15:19:24.402Z,14.57
2022-11-14T15:22:10.862Z,15.13
2022-11-14T15:24:38.031Z,15.40
2022-11-14T15:27:11.655Z,13.33
2022-11-14T15:29:52.154Z,13.67
2022-11-14T15:32:25.331Z,12.97
2022-11-14T15:35:32.629Z,14.43
2022-11-14T15:41:25.314Z,13.60
2022-11-14T15:43:55.232Z,15.97
2022-11-14T15:46:33.406Z,14.90
2022-11-14T15:49:08.517Z,15.10
2022-11-14T15:51:55.815Z,15.40
2022-11-14T15:54:34.330Z,13.87
2022-11-14T15:57:22.640Z,15.37
2022-11-14T15:59:49.862Z,14.57
2022-11-14T16:02:22.719Z,14.20
2022-11-14T16:04:52.074Z,13.30
2022-11-14T16:07:19.793Z,12.80
2022-11-14T16:09:47.569Z,13.20
2022-11-14T16:12:15.140Z,13.57
2022-11-14T16:14:42.649Z,13.70
2022-11-14T16:17:14.015Z,12.73
2022-11-14T16:19:41.712Z,13.07
2022-11-14T16:22:16.010Z,14.70
2022-11-14T16:24:43.188Z,13.57
2022-11-14T16:27:10.434Z,14.13
2022-11-14T16:29:37.564Z,14.63
2022-11-14T16:32:04.844Z,13.77
2022-11-14T16:34:32.007Z,13.40
2022-11-14T16:37:01.314Z,13.33
2022-11-14T16:39:29.294Z,14.70
2022-11-14T16:42:03.027Z,14.60
2022-11-14T16:44:34.542Z,14.87
2022-11-14T16:47:06.045Z,15.10
2022-11-14T16:49:33.209Z,15.93
2022-11-14T16:52:05.510Z,14.87
2022-11-14T16:54:33.327Z,14.60
2022-11-14T16:57:00.447Z,13.60
2022-11-14T16:59:27.661Z,14.33
2022-11-14T17:01:54.835Z,14.80
2022-11-14T17:04:22.074Z,17.37
2022-11-14T17:06:49.320Z,16.00
2022-11-14T17:09:16.601Z,14.30
2022-11-14T17:11:44.727Z,14.53
2022-11-14T17:14:12.836Z,15.40
2022-11-14T17:16:39.986Z,13.87
2022-11-14T17:19:07.952Z,14.30
2022-11-14T17:21:35.138Z,16.00
2022-11-14T17:24:02.647Z,15.40
2022-11-14T17:26:30.249Z,16.10
2022-11-14T17:28:57.677Z,19.33
2022-11-14T17:31:24.823Z,17.90
2022-11-14T17:33:53.790Z,22.20
2022-11-14T17:36:22.338Z,15.80
2022-11-14T17:38:49.679Z,15.80
2022-11-14T17:41:17.271Z,15.33
2022-11-14T17:43:44.658Z,17.53
2022-11-14T17:46:16.064Z,17.80
2022-11-14T17:48:44.692Z,23.10
2022-11-14T17:51:16.440Z,25.67
2022-11-14T17:53:43.933Z,26.80
2022-11-14T17:56:23.294Z,29.30
2022-11-14T17:58:52.234Z,27.20
2022-11-14T18:01:24.865Z,27.97
2022-11-14T18:03:52.099Z,27.70
2022-11-14T18:06:21.052Z,27.47
2022-11-14T18:08:48.769Z,27.57
2022-11-14T18:11:17.525Z,27.50
2022-11-14T18:13:45.266Z,26.90
2022-11-14T18:16:15.858Z,20.50
2022-11-14T18:18:43.049Z,19.40
2022-11-14T18:21:17.060Z,19.20
2022-11-14T18:23:49.678Z,17.33
2022-11-14T18:26:18.188Z,18.20
2022-11-14T18:28:45.540Z,15.60
2022-11-14T18:31:13.502Z,18.40
2022-11-14T18:33:41.963Z,17.30
2022-11-14T18:36:12.741Z,24.93
2022-11-14T18:38:40.629Z,28.53
2022-11-14T18:41:10.598Z,29.77
2022-11-14T18:43:37.812Z,32.87
2022-11-14T18:46:20.009Z,32.07
2022-11-14T18:48:49.171Z,28.63
2022-11-14T18:51:19.479Z,28.67
2022-11-14T18:53:47.058Z,27.20
2022-11-14T18:56:16.896Z,26.57
2022-11-14T18:58:45.258Z,26.83
2022-11-14T19:01:21.982Z,26.70
2022-11-14T19:03:49.738Z,29.20
2022-11-14T19:06:17.294Z,28.30
2022-11-14T19:08:44.451Z,26.70
2022-11-14T19:11:32.838Z,24.10
2022-11-14T19:14:05.620Z,21.83
2022-11-14T19:16:34.765Z,21.90
2022-11-14T19:19:02.473Z,20.10
2022-11-14T19:21:30.092Z,19.77
2022-11-14T19:23:59.533Z,21.70
2022-11-14T19:26:27.356Z,24.10
2022-11-14T19:28:55.320Z,25.23
2022-11-14T19:31:23.198Z,26.70
2022-11-14T19:33:50.519Z,28.20
2022-11-14T19:36:38.578Z,30.90
2022-11-14T19:39:07.634Z,28.90
2022-11-14T19:41:34.879Z,29.17
2022-11-14T19:44:02.875Z,27.13
2022-11-14T19:46:30.275Z,27.17
2022-11-14T19:49:01.473Z,26.93
2022-11-14T19:51:29.655Z,26.60
2022-11-14T19:53:58.956Z,27.13
2022-11-14T19:56:27.039Z,25.40
2022-11-14T19:58:56.600Z,25.83
2022-11-14T20:01:26.941Z,25.70
2022-11-14T20:03:59.339Z,24.07
2022-11-14T20:06:28.002Z,25.17
2022-11-14T20:08:56.358Z,23.60
2022-11-14T20:11:27.062Z,23.77
2022-11-14T20:13:56.047Z,24.70
2022-11-14T20:16:26.649Z,24.20
2022-11-14T20:18:59.121Z,23.57
2022-11-14T20:21:28.991Z,25.30
2022-11-14T20:23:56.614Z,23.70
2022-11-14T20:26:24.537Z,24.40
2022-11-14T20:28:53.957Z,22.30
2022-11-14T20:31:23.944Z,25.47
2022-11-14T20:33:52.984Z,23.80
2022-11-14T20:36:25.185Z,24.50
2022-11-14T20:38:53.608Z,24.00
2022-11-14T20:41:21.130Z,25.90
2022-11-14T20:43:48.772Z,25.97
2022-11-14T20:46:21.711Z,25.73
2022-11-14T20:48:49.472Z,23.90
2022-11-14T20:51:22.104Z,25.87
2022-11-14T20:53:51.590Z,25.73
2022-11-14T20:56:19.778Z,24.60
2022-11-14T20:58:48.969Z,24.10
2022-11-14T21:01:16.705Z,23.77
2022-11-14T21:03:44.295Z,27.00
2022-11-14T21:06:12.638Z,24.87
2022-11-14T21:08:40.480Z,24.03
2022-11-14T21:11:11.919Z,23.07
2022-11-14T21:14:01.692Z,25.00
2022-11-14T21:16:34.936Z,22.07
2022-11-14T21:19:03.446Z,24.37
2022-11-14T21:21:33.937Z,25.43
2022-11-14T21:24:01.110Z,22.40
2022-11-14T21:26:30.697Z,23.07
2022-11-14T21:29:00.586Z,21.70
2022-11-14T21:31:36.610Z,23.17
2022-11-14T21:34:10.466Z,20.63
2022-11-14T21:36:44.774Z,22.50
2022-11-14T21:39:16.180Z,19.63
2022-11-14T21:41:44.468Z,22.67
2022-11-14T21:44:14.434Z,22.67
2022-11-14T21:46:42.120Z,22.70
2022-11-14T21:49:09.964Z,22.20
2022-11-14T21:51:37.166Z,23.43
2022-11-14T21:54:06.478Z,21.97
2022-11-14T21:56:35.326Z,21.00
2022-11-14T21:59:13.527Z,20.60
2022-11-14T22:02:05.022Z,21.83
2022-11-14T22:04:32.730Z,18.93
2022-11-14T22:07:05.681Z,17.90
2022-11-14T22:09:33.366Z,19.00
2022-11-14T22:12:01.343Z,18.13
2022-11-14T22:14:29.590Z,18.77
2022-11-14T22:16:58.145Z,18.27
2022-11-14T22:19:25.785Z,17.30
2022-11-14T22:21:54.257Z,17.03
2022-11-14T22:24:22.183Z,15.93
2022-11-14T22:26:49.422Z,16.87
2022-11-14T22:29:16.642Z,17.00
2022-11-14T22:31:43.822Z,18.37
2022-11-14T22:34:11.975Z,16.27
2022-11-14T22:36:39.283Z,17.13
2022-11-14T22:39:06.602Z,16.70
2022-11-14T22:41:34.116Z,16.00
2022-11-14T22:44:01.916Z,15.47
2022-11-14T22:46:29.440Z,16.20
2022-11-14T22:48:58.206Z,16.43
2022-11-14T22:51:27.403Z,15.90
2022-11-14T22:53:56.509Z,16.23
2022-11-14T22:56:25.982Z,14.20
2022-11-14T22:58:53.344Z,15.23
2022-11-14T23:01:26.634Z,14.07
2022-11-14T23:04:02.514Z,13.37
2022-11-14T23:06:31.481Z,14.80
2022-11-14T23:08:59.007Z,15.60
2022-11-14T23:11:28.895Z,14.90
2022-11-14T23:13:57.540Z,14.90
2022-11-14T23:16:26.833Z,19.13
2022-11-14T23:18:59.500Z,23.10
2022-11-14T23:21:29.468Z,15.70
2022-11-14T23:23:59.000Z,15.60
2022-11-14T23:26:27.826Z,16.10
2022-11-14T23:28:55.503Z,16.27
2022-11-14T23:31:23.515Z,14.47
2022-11-14T23:33:54.193Z,14.33
2022-11-14T23:36:21.379Z,11.63
2022-11-14T23:38:48.546Z,11.27
2022-11-14T23:41:21.426Z,11.47
2022-11-14T23:43:49.000Z,11.73
2022-11-14T23:46:16.349Z,10.20
2022-11-14T23:48:43.491Z,9.87
2022-11-14T23:51:10.967Z,9.40
2022-11-14T23:53:38.150Z,9.80
2022-11-14T23:56:05.519Z,9.03
2022-11-14T23:58:32.617Z,9.60
